sensor_id;sensor_type;location;lat;lon;timestamp;temperature;humidity
7518;DHT22;3800;48.922;9.444;2023-10-08T00:01:12;11.70;99.90
7518;DHT22;3800;48.922;9.444;2023-10-08T00:03:40;11.70;99.90
7518;DHT22;3800;48.922;9.444;2023-10-08T00:06:09;11.70;99.90
7518;DHT22;3800;48.922;9.444;2023-10-08T00:08:39;11.70;99.90
7518;DHT22;3800;48.922;9.444;2023-10-08T00:11:07;11.70;99.90
7518;DHT22;3800;48.922;9.444;2023-10-08T00:13:36;11.70;99.90
7518;DHT22;3800;48.922;9.444;2023-10-08T00:16:08;11.70;99.90
7518;DHT22;3800;48.922;9.444;2023-10-08T00:18:38;11.80;99.90
7518;DHT22;3800;48.922;9.444;2023-10-08T00:21:08;11.70;99.90
7518;DHT22;3800;48.922;9.444;2023-10-08T00:23:46;11.70;99.90
7518;DHT22;3800;48.922;9.444;2023-10-08T00:26:19;11.70;99.90
7518;DHT22;3800;48.922;9.444;2023-10-08T00:28:55;11.80;99.90
7518;DHT22;3800;48.922;9.444;2023-10-08T00:31:24;11.80;99.90
7518;DHT22;3800;48.922;9.444;2023-10-08T00:33:54;11.70;99.90
7518;DHT22;3800;48.922;9.444;2023-10-08T00:36:23;11.70;99.90
7518;DHT22;3800;48.922;9.444;2023-10-08T00:38:52;11.70;99.90
7518;DHT22;3800;48.922;9.444;2023-10-08T00:41:20;11.70;99.90
7518;DHT22;3800;48.922;9.444;2023-10-08T00:43:50;11.70;99.90
7518;DHT22;3800;48.922;9.444;2023-10-08T00:46:19;11.70;99.90
7518;DHT22;3800;48.922;9.444;2023-10-08T00:48:51;11.70;99.90
7518;DHT22;3800;48.922;9.444;2023-10-08T00:51:19;11.60;99.90
7518;DHT22;3800;48.922;9.444;2023-10-08T00:53:55;11.60;99.90
7518;DHT22;3800;48.922;9.444;2023-10-08T00:56:26;11.60;99.90
7518;DHT22;3800;48.922;9.444;2023-10-08T00:58:54;11.60;99.90
7518;DHT22;3800;48.922;9.444;2023-10-08T01:01:23;11.50;99.90
7518;DHT22;3800;48.922;9.444;2023-10-08T01:03:51;11.50;99.90
7518;DHT22;3800;48.922;9.444;2023-10-08T01:06:19;11.50;99.90
7518;DHT22;3800;48.922;9.444;2023-10-08T01:08:49;11.40;99.90
7518;DHT22;3800;48.922;9.444;2023-10-08T01:11:20;11.40;99.90
7518;DHT22;3800;48.922;9.444;2023-10-08T01:13:50;11.40;99.90
7518;DHT22;3800;48.922;9.444;2023-10-08T01:16:18;11.40;99.90
7518;DHT22;3800;48.922;9.444;2023-10-08T01:18:46;11.30;99.90
7518;DHT22;3800;48.922;9.444;2023-10-08T01:21:14;11.30;99.90
7518;DHT22;3800;48.922;9.444;2023-10-08T01:23:44;11.30;99.90
7518;DHT22;3800;48.922;9.444;2023-10-08T01:26:12;11.30;99.90
7518;DHT22;3800;48.922;9.444;2023-10-08T01:28:41;11.20;99.90
7518;DHT22;3800;48.922;9.444;2023-10-08T01:31:09;11.20;99.90
7518;DHT22;3800;48.922;9.444;2023-10-08T01:33:37;11.20;99.90
7518;DHT22;3800;48.922;9.444;2023-10-08T01:36:06;11.20;99.90
7518;DHT22;3800;48.922;9.444;2023-10-08T01:38:34;11.20;99.90
7518;DHT22;3800;48.922;9.444;2023-10-08T01:41:02;11.20;99.90
7518;DHT22;3800;48.922;9.444;2023-10-08T01:43:30;11.20;99.90
7518;DHT22;3800;48.922;9.444;2023-10-08T01:46:02;11.10;99.90
7518;DHT22;3800;48.922;9.444;2023-10-08T01:48:28;11.10;99.90
7518;DHT22;3800;48.922;9.444;2023-10-08T01:50:58;11.10;99.90
7518;DHT22;3800;48.922;9.444;2023-10-08T01:53:27;11.20;99.90
7518;DHT22;3800;48.922;9.444;2023-10-08T01:55:55;11.10;99.90
7518;DHT22;3800;48.922;9.444;2023-10-08T01:58:24;11.10;99.90
7518;DHT22;3800;48.922;9.444;2023-10-08T02:00:53;11.10;99.90
7518;DHT22;3800;48.922;9.444;2023-10-08T02:03:21;11.20;99.90
7518;DHT22;3800;48.922;9.444;2023-10-08T02:05:49;11.10;99.90
7518;DHT22;3800;48.922;9.444;2023-10-08T02:08:18;11.10;99.90
7518;DHT22;3800;48.922;9.444;2023-10-08T02:10:48;10.90;99.90
7518;DHT22;3800;48.922;9.444;2023-10-08T02:13:16;10.90;99.90
7518;DHT22;3800;48.922;9.444;2023-10-08T02:15:45;10.90;99.90
7518;DHT22;3800;48.922;9.444;2023-10-08T02:18:13;10.90;99.90
7518;DHT22;3800;48.922;9.444;2023-10-08T02:20:43;10.80;99.90
7518;DHT22;3800;48.922;9.444;2023-10-08T02:23:13;10.60;99.90
7518;DHT22;3800;48.922;9.444;2023-10-08T02:25:41;10.60;99.90
7518;DHT22;3800;48.922;9.444;2023-10-08T02:28:10;10.60;99.90
7518;DHT22;3800;48.922;9.444;2023-10-08T02:30:40;10.60;99.90
7518;DHT22;3800;48.922;9.444;2023-10-08T02:33:08;10.60;99.90
7518;DHT22;3800;48.922;9.444;2023-10-08T02:35:44;10.60;99.90
7518;DHT22;3800;48.922;9.444;2023-10-08T02:38:13;10.60;99.90
7518;DHT22;3800;48.922;9.444;2023-10-08T02:40:40;10.60;99.90
7518;DHT22;3800;48.922;9.444;2023-10-08T02:43:09;10.50;99.90
7518;DHT22;3800;48.922;9.444;2023-10-08T02:45:37;10.50;99.90
7518;DHT22;3800;48.922;9.444;2023-10-08T02:48:07;10.50;99.90
7518;DHT22;3800;48.922;9.444;2023-10-08T02:50:41;10.40;99.90
7518;DHT22;3800;48.922;9.444;2023-10-08T02:53:09;10.40;99.90
7518;DHT22;3800;48.922;9.444;2023-10-08T02:55:38;10.40;99.90
7518;DHT22;3800;48.922;9.444;2023-10-08T02:58:13;10.30;99.90
7518;DHT22;3800;48.922;9.444;2023-10-08T03:00:42;10.40;99.90
7518;DHT22;3800;48.922;9.444;2023-10-08T03:03:11;10.40;99.90
7518;DHT22;3800;48.922;9.444;2023-10-08T03:05:46;10.40;99.90
7518;DHT22;3800;48.922;9.444;2023-10-08T03:08:15;10.30;99.90
7518;DHT22;3800;48.922;9.444;2023-10-08T03:10:51;10.30;99.90
7518;DHT22;3800;48.922;9.444;2023-10-08T03:13:21;10.30;99.90
7518;DHT22;3800;48.922;9.444;2023-10-08T03:15:50;10.20;99.90
7518;DHT22;3800;48.922;9.444;2023-10-08T03:18:24;10.10;99.90
7518;DHT22;3800;48.922;9.444;2023-10-08T03:20:53;10.10;99.90
7518;DHT22;3800;48.922;9.444;2023-10-08T03:23:22;10.00;99.90
7518;DHT22;3800;48.922;9.444;2023-10-08T03:25:52;10.00;99.90
7518;DHT22;3800;48.922;9.444;2023-10-08T03:28:20;10.00;99.90
7518;DHT22;3800;48.922;9.444;2023-10-08T03:30:49;10.00;99.90
7518;DHT22;3800;48.922;9.444;2023-10-08T03:33:18;10.00;99.90
7518;DHT22;3800;48.922;9.444;2023-10-08T03:36:02;10.00;99.90
7518;DHT22;3800;48.922;9.444;2023-10-08T03:38:40;10.00;99.90
7518;DHT22;3800;48.922;9.444;2023-10-08T03:41:23;10.10;99.90
7518;DHT22;3800;48.922;9.444;2023-10-08T03:43:55;10.10;99.90
7518;DHT22;3800;48.922;9.444;2023-10-08T03:46:33;10.00;99.90
7518;DHT22;3800;48.922;9.444;2023-10-08T03:49:03;10.00;99.90
7518;DHT22;3800;48.922;9.444;2023-10-08T03:51:31;10.00;99.90
7518;DHT22;3800;48.922;9.444;2023-10-08T03:54:00;10.00;99.90
7518;DHT22;3800;48.922;9.444;2023-10-08T03:56:45;9.90;99.90
7518;DHT22;3800;48.922;9.444;2023-10-08T03:59:15;9.90;99.90
7518;DHT22;3800;48.922;9.444;2023-10-08T04:01:47;9.90;99.90
7518;DHT22;3800;48.922;9.444;2023-10-08T04:04:16;9.90;99.90
7518;DHT22;3800;48.922;9.444;2023-10-08T04:06:45;9.80;99.90
7518;DHT22;3800;48.922;9.444;2023-10-08T04:09:15;9.80;99.90
7518;DHT22;3800;48.922;9.444;2023-10-08T04:11:54;9.80;99.90
7518;DHT22;3800;48.922;9.444;2023-10-08T04:14:23;9.80;99.90
7518;DHT22;3800;48.922;9.444;2023-10-08T04:16:52;9.80;99.90
7518;DHT22;3800;48.922;9.444;2023-10-08T04:19:21;9.80;99.90
7518;DHT22;3800;48.922;9.444;2023-10-08T04:21:49;9.80;99.90
7518;DHT22;3800;48.922;9.444;2023-10-08T04:24:22;9.70;99.90
7518;DHT22;3800;48.922;9.444;2023-10-08T04:26:56;9.70;99.90
7518;DHT22;3800;48.922;9.444;2023-10-08T04:29:25;9.70;99.90
7518;DHT22;3800;48.922;9.444;2023-10-08T04:31:53;9.70;99.90
7518;DHT22;3800;48.922;9.444;2023-10-08T04:34:22;9.80;99.90
7518;DHT22;3800;48.922;9.444;2023-10-08T04:36:50;9.80;99.90
7518;DHT22;3800;48.922;9.444;2023-10-08T04:39:22;9.80;99.90
7518;DHT22;3800;48.922;9.444;2023-10-08T04:41:50;9.70;99.90
7518;DHT22;3800;48.922;9.444;2023-10-08T04:44:18;9.80;99.90
7518;DHT22;3800;48.922;9.444;2023-10-08T04:46:47;9.70;99.90
7518;DHT22;3800;48.922;9.444;2023-10-08T04:49:15;9.70;99.90
7518;DHT22;3800;48.922;9.444;2023-10-08T04:51:45;9.80;99.90
7518;DHT22;3800;48.922;9.444;2023-10-08T04:54:13;9.70;99.90
7518;DHT22;3800;48.922;9.444;2023-10-08T04:56:43;9.70;99.90
7518;DHT22;3800;48.922;9.444;2023-10-08T04:59:11;9.70;99.90
7518;DHT22;3800;48.922;9.444;2023-10-08T05:01:40;9.70;99.90
7518;DHT22;3800;48.922;9.444;2023-10-08T05:04:08;9.70;99.90
7518;DHT22;3800;48.922;9.444;2023-10-08T05:06:37;9.70;99.90
7518;DHT22;3800;48.922;9.444;2023-10-08T05:09:21;9.70;99.90
7518;DHT22;3800;48.922;9.444;2023-10-08T05:11:51;9.70;99.90
7518;DHT22;3800;48.922;9.444;2023-10-08T05:14:32;9.70;99.90
7518;DHT22;3800;48.922;9.444;2023-10-08T05:17:04;9.70;99.90
7518;DHT22;3800;48.922;9.444;2023-10-08T05:19:32;9.70;99.90
7518;DHT22;3800;48.922;9.444;2023-10-08T05:22:08;9.70;99.90
7518;DHT22;3800;48.922;9.444;2023-10-08T05:24:57;9.70;99.90
7518;DHT22;3800;48.922;9.444;2023-10-08T05:27:33;9.60;99.90
7518;DHT22;3800;48.922;9.444;2023-10-08T05:30:07;9.60;99.90
7518;DHT22;3800;48.922;9.444;2023-10-08T05:32:38;9.50;99.90
7518;DHT22;3800;48.922;9.444;2023-10-08T05:35:22;9.50;99.90
7518;DHT22;3800;48.922;9.444;2023-10-08T05:37:57;9.60;99.90
7518;DHT22;3800;48.922;9.444;2023-10-08T05:40:23;9.60;99.90
7518;DHT22;3800;48.922;9.444;2023-10-08T05:42:53;9.60;99.90
7518;DHT22;3800;48.922;9.444;2023-10-08T05:45:21;9.50;99.90
7518;DHT22;3800;48.922;9.444;2023-10-08T05:47:57;9.60;99.90
7518;DHT22;3800;48.922;9.444;2023-10-08T05:50:31;9.60;99.90
7518;DHT22;3800;48.922;9.444;2023-10-08T05:53:06;9.60;99.90
7518;DHT22;3800;48.922;9.444;2023-10-08T05:55:34;9.60;99.90
7518;DHT22;3800;48.922;9.444;2023-10-08T05:58:04;9.50;99.90
7518;DHT22;3800;48.922;9.444;2023-10-08T06:00:37;9.50;99.90
7518;DHT22;3800;48.922;9.444;2023-10-08T06:03:12;9.60;99.90
7518;DHT22;3800;48.922;9.444;2023-10-08T06:05:46;9.60;99.90
7518;DHT22;3800;48.922;9.444;2023-10-08T06:08:14;9.60;99.90
7518;DHT22;3800;48.922;9.444;2023-10-08T06:10:42;9.60;99.90
7518;DHT22;3800;48.922;9.444;2023-10-08T06:13:12;9.60;99.90
7518;DHT22;3800;48.922;9.444;2023-10-08T06:15:46;9.70;99.90
7518;DHT22;3800;48.922;9.444;2023-10-08T06:18:18;9.70;99.90
7518;DHT22;3800;48.922;9.444;2023-10-08T06:20:46;9.80;99.90
7518;DHT22;3800;48.922;9.444;2023-10-08T06:23:17;9.80;99.90
7518;DHT22;3800;48.922;9.444;2023-10-08T06:25:47;9.80;99.90
7518;DHT22;3800;48.922;9.444;2023-10-08T06:28:16;9.90;99.90
7518;DHT22;3800;48.922;9.444;2023-10-08T06:30:47;9.90;99.90
7518;DHT22;3800;48.922;9.444;2023-10-08T06:33:16;10.00;99.90
7518;DHT22;3800;48.922;9.444;2023-10-08T06:35:44;9.90;99.90
7518;DHT22;3800;48.922;9.444;2023-10-08T06:38:13;10.00;99.90
7518;DHT22;3800;48.922;9.444;2023-10-08T06:40:42;10.00;99.90
7518;DHT22;3800;48.922;9.444;2023-10-08T06:43:10;10.00;99.90
7518;DHT22;3800;48.922;9.444;2023-10-08T06:45:39;10.10;99.90
7518;DHT22;3800;48.922;9.444;2023-10-08T06:48:08;10.10;99.90
7518;DHT22;3800;48.922;9.444;2023-10-08T06:50:36;10.20;99.90
7518;DHT22;3800;48.922;9.444;2023-10-08T06:53:04;10.30;99.90
7518;DHT22;3800;48.922;9.444;2023-10-08T06:55:34;10.40;99.90
7518;DHT22;3800;48.922;9.444;2023-10-08T06:58:03;10.50;99.90
7518;DHT22;3800;48.922;9.444;2023-10-08T07:00:33;10.50;99.90
7518;DHT22;3800;48.922;9.444;2023-10-08T07:03:06;10.60;99.90
7518;DHT22;3800;48.922;9.444;2023-10-08T07:05:36;10.70;99.90
7518;DHT22;3800;48.922;9.444;2023-10-08T07:08:08;10.70;99.90
7518;DHT22;3800;48.922;9.444;2023-10-08T07:10:35;10.70;99.90
7518;DHT22;3800;48.922;9.444;2023-10-08T07:13:04;10.80;99.90
7518;DHT22;3800;48.922;9.444;2023-10-08T07:15:33;10.80;99.90
7518;DHT22;3800;48.922;9.444;2023-10-08T07:18:01;10.90;99.90
7518;DHT22;3800;48.922;9.444;2023-10-08T07:20:30;11.00;99.90
7518;DHT22;3800;48.922;9.444;2023-10-08T07:22:59;11.00;99.90
7518;DHT22;3800;48.922;9.444;2023-10-08T07:25:28;11.10;99.90
7518;DHT22;3800;48.922;9.444;2023-10-08T07:27:56;11.20;99.90
7518;DHT22;3800;48.922;9.444;2023-10-08T07:30:24;11.20;99.90
7518;DHT22;3800;48.922;9.444;2023-10-08T07:32:55;11.30;99.90
7518;DHT22;3800;48.922;9.444;2023-10-08T07:35:23;11.40;99.90
7518;DHT22;3800;48.922;9.444;2023-10-08T07:37:53;11.50;99.90
7518;DHT22;3800;48.922;9.444;2023-10-08T07:40:22;11.50;99.90
7518;DHT22;3800;48.922;9.444;2023-10-08T07:42:51;11.60;99.90
7518;DHT22;3800;48.922;9.444;2023-10-08T07:45:20;11.70;99.90
7518;DHT22;3800;48.922;9.444;2023-10-08T07:47:50;11.70;99.90
7518;DHT22;3800;48.922;9.444;2023-10-08T07:50:18;11.80;99.90
7518;DHT22;3800;48.922;9.444;2023-10-08T07:52:46;11.80;99.90
7518;DHT22;3800;48.922;9.444;2023-10-08T07:55:15;11.90;99.90
7518;DHT22;3800;48.922;9.444;2023-10-08T07:57:43;11.90;99.90
7518;DHT22;3800;48.922;9.444;2023-10-08T08:00:12;12.00;99.90
7518;DHT22;3800;48.922;9.444;2023-10-08T08:02:45;12.10;99.90
7518;DHT22;3800;48.922;9.444;2023-10-08T08:05:15;12.30;99.90
7518;DHT22;3800;48.922;9.444;2023-10-08T08:07:44;12.40;99.90
7518;DHT22;3800;48.922;9.444;2023-10-08T08:10:14;12.60;99.90
7518;DHT22;3800;48.922;9.444;2023-10-08T08:12:42;12.80;99.90
7518;DHT22;3800;48.922;9.444;2023-10-08T08:15:11;13.10;99.90
7518;DHT22;3800;48.922;9.444;2023-10-08T08:17:43;13.20;99.90
7518;DHT22;3800;48.922;9.444;2023-10-08T08:20:15;13.40;99.90
7518;DHT22;3800;48.922;9.444;2023-10-08T08:22:45;13.60;99.90
7518;DHT22;3800;48.922;9.444;2023-10-08T08:25:20;13.80;99.90
7518;DHT22;3800;48.922;9.444;2023-10-08T08:27:54;14.00;99.90
7518;DHT22;3800;48.922;9.444;2023-10-08T08:30:23;14.00;99.90
7518;DHT22;3800;48.922;9.444;2023-10-08T08:32:52;14.10;99.90
7518;DHT22;3800;48.922;9.444;2023-10-08T08:35:20;14.30;99.90
7518;DHT22;3800;48.922;9.444;2023-10-08T08:37:49;14.40;99.90
7518;DHT22;3800;48.922;9.444;2023-10-08T08:40:19;14.50;99.90
7518;DHT22;3800;48.922;9.444;2023-10-08T08:42:48;14.50;99.90
7518;DHT22;3800;48.922;9.444;2023-10-08T08:45:19;14.50;99.90
7518;DHT22;3800;48.922;9.444;2023-10-08T08:47:48;14.50;99.90
7518;DHT22;3800;48.922;9.444;2023-10-08T08:50:16;14.60;99.90
7518;DHT22;3800;48.922;9.444;2023-10-08T08:52:44;14.60;99.90
7518;DHT22;3800;48.922;9.444;2023-10-08T08:55:13;14.70;99.90
7518;DHT22;3800;48.922;9.444;2023-10-08T08:57:42;14.80;99.90
7518;DHT22;3800;48.922;9.444;2023-10-08T09:00:11;15.00;99.90
7518;DHT22;3800;48.922;9.444;2023-10-08T09:02:40;15.00;99.90
7518;DHT22;3800;48.922;9.444;2023-10-08T09:05:09;15.10;99.90
7518;DHT22;3800;48.922;9.444;2023-10-08T09:08:01;15.20;99.90
7518;DHT22;3800;48.922;9.444;2023-10-08T09:10:31;15.30;99.90
7518;DHT22;3800;48.922;9.444;2023-10-08T09:12:59;15.40;99.90
7518;DHT22;3800;48.922;9.444;2023-10-08T09:15:28;15.60;99.90
7518;DHT22;3800;48.922;9.444;2023-10-08T09:20:54;15.80;99.90
7518;DHT22;3800;48.922;9.444;2023-10-08T09:23:23;15.90;99.90
7518;DHT22;3800;48.922;9.444;2023-10-08T09:25:51;15.90;99.90
7518;DHT22;3800;48.922;9.444;2023-10-08T09:28:19;16.10;99.90
7518;DHT22;3800;48.922;9.444;2023-10-08T09:30:50;16.50;99.90
7518;DHT22;3800;48.922;9.444;2023-10-08T09:33:18;16.50;99.90
7518;DHT22;3800;48.922;9.444;2023-10-08T09:35:46;16.60;99.90
7518;DHT22;3800;48.922;9.444;2023-10-08T09:38:15;16.60;99.90
7518;DHT22;3800;48.922;9.444;2023-10-08T09:40:45;16.80;99.90
7518;DHT22;3800;48.922;9.444;2023-10-08T09:43:14;16.90;99.90
7518;DHT22;3800;48.922;9.444;2023-10-08T09:45:47;16.90;99.90
7518;DHT22;3800;48.922;9.444;2023-10-08T09:48:15;17.00;99.90
7518;DHT22;3800;48.922;9.444;2023-10-08T09:50:44;17.20;99.90
7518;DHT22;3800;48.922;9.444;2023-10-08T09:53:13;17.20;99.90
7518;DHT22;3800;48.922;9.444;2023-10-08T09:55:49;17.30;99.90
7518;DHT22;3800;48.922;9.444;2023-10-08T09:58:28;17.40;99.90
7518;DHT22;3800;48.922;9.444;2023-10-08T10:00:57;17.60;99.90
7518;DHT22;3800;48.922;9.444;2023-10-08T10:03:25;17.60;99.90
7518;DHT22;3800;48.922;9.444;2023-10-08T10:05:55;17.70;99.90
7518;DHT22;3800;48.922;9.444;2023-10-08T10:08:24;17.70;99.90
7518;DHT22;3800;48.922;9.444;2023-10-08T10:11:00;17.80;99.90
7518;DHT22;3800;48.922;9.444;2023-10-08T10:13:28;17.90;99.90
7518;DHT22;3800;48.922;9.444;2023-10-08T10:15:56;18.00;99.90
7518;DHT22;3800;48.922;9.444;2023-10-08T10:18:28;18.10;99.90
7518;DHT22;3800;48.922;9.444;2023-10-08T10:20:59;18.10;99.90
7518;DHT22;3800;48.922;9.444;2023-10-08T10:23:35;18.20;99.90
7518;DHT22;3800;48.922;9.444;2023-10-08T10:26:06;18.30;99.90
7518;DHT22;3800;48.922;9.444;2023-10-08T10:28:34;18.40;99.90
7518;DHT22;3800;48.922;9.444;2023-10-08T10:31:09;18.40;99.90
7518;DHT22;3800;48.922;9.444;2023-10-08T10:33:37;18.40;99.90
7518;DHT22;3800;48.922;9.444;2023-10-08T10:36:06;18.50;99.90
7518;DHT22;3800;48.922;9.444;2023-10-08T10:38:42;18.60;99.90
7518;DHT22;3800;48.922;9.444;2023-10-08T10:41:11;18.60;99.90
7518;DHT22;3800;48.922;9.444;2023-10-08T10:43:40;18.70;99.90
7518;DHT22;3800;48.922;9.444;2023-10-08T10:46:08;18.60;99.90
7518;DHT22;3800;48.922;9.444;2023-10-08T10:48:43;18.70;99.90
7518;DHT22;3800;48.922;9.444;2023-10-08T10:51:11;18.70;99.90
7518;DHT22;3800;48.922;9.444;2023-10-08T10:53:40;18.70;99.90
7518;DHT22;3800;48.922;9.444;2023-10-08T10:56:13;18.80;99.90
7518;DHT22;3800;48.922;9.444;2023-10-08T10:58:42;18.80;99.90
7518;DHT22;3800;48.922;9.444;2023-10-08T11:01:11;18.90;99.90
7518;DHT22;3800;48.922;9.444;2023-10-08T11:03:56;18.90;99.90
7518;DHT22;3800;48.922;9.444;2023-10-08T11:06:25;19.00;99.90
7518;DHT22;3800;48.922;9.444;2023-10-08T11:08:53;19.10;99.90
7518;DHT22;3800;48.922;9.444;2023-10-08T11:11:26;19.20;99.90
7518;DHT22;3800;48.922;9.444;2023-10-08T11:13:56;19.40;99.90
7518;DHT22;3800;48.922;9.444;2023-10-08T11:16:24;19.40;99.90
7518;DHT22;3800;48.922;9.444;2023-10-08T11:18:52;19.40;99.90
7518;DHT22;3800;48.922;9.444;2023-10-08T11:21:20;19.40;99.90
7518;DHT22;3800;48.922;9.444;2023-10-08T11:23:51;19.50;99.90
7518;DHT22;3800;48.922;9.444;2023-10-08T11:26:20;19.50;99.90
7518;DHT22;3800;48.922;9.444;2023-10-08T11:28:55;19.50;99.90
7518;DHT22;3800;48.922;9.444;2023-10-08T11:31:24;19.50;99.90
7518;DHT22;3800;48.922;9.444;2023-10-08T11:33:58;19.50;99.90
7518;DHT22;3800;48.922;9.444;2023-10-08T11:36:22;19.60;99.90
7518;DHT22;3800;48.922;9.444;2023-10-08T11:38:57;19.50;99.90
7518;DHT22;3800;48.922;9.444;2023-10-08T11:41:29;19.50;99.90
7518;DHT22;3800;48.922;9.444;2023-10-08T11:44:03;19.50;99.90
7518;DHT22;3800;48.922;9.444;2023-10-08T11:46:31;19.50;99.90
7518;DHT22;3800;48.922;9.444;2023-10-08T11:49:01;19.40;99.90
7518;DHT22;3800;48.922;9.444;2023-10-08T11:51:34;19.40;99.90
7518;DHT22;3800;48.922;9.444;2023-10-08T11:54:02;19.40;99.90
7518;DHT22;3800;48.922;9.444;2023-10-08T11:56:33;19.40;99.90
7518;DHT22;3800;48.922;9.444;2023-10-08T11:59:03;19.50;99.90
7518;DHT22;3800;48.922;9.444;2023-10-08T12:01:32;19.60;99.90
7518;DHT22;3800;48.922;9.444;2023-10-08T12:04:02;19.70;99.90
7518;DHT22;3800;48.922;9.444;2023-10-08T12:06:31;19.80;99.90
7518;DHT22;3800;48.922;9.444;2023-10-08T12:09:00;20.00;99.90
7518;DHT22;3800;48.922;9.444;2023-10-08T12:11:30;20.00;99.90
7518;DHT22;3800;48.922;9.444;2023-10-08T12:14:01;20.10;99.90
7518;DHT22;3800;48.922;9.444;2023-10-08T12:16:29;20.10;99.90
7518;DHT22;3800;48.922;9.444;2023-10-08T12:18:57;20.10;99.90
7518;DHT22;3800;48.922;9.444;2023-10-08T12:21:27;20.20;99.90
7518;DHT22;3800;48.922;9.444;2023-10-08T12:23:58;20.30;99.90
7518;DHT22;3800;48.922;9.444;2023-10-08T12:26:26;20.50;99.90
7518;DHT22;3800;48.922;9.444;2023-10-08T12:28:55;20.60;99.90
7518;DHT22;3800;48.922;9.444;2023-10-08T12:31:24;20.60;99.90
7518;DHT22;3800;48.922;9.444;2023-10-08T12:33:53;20.80;99.90
7518;DHT22;3800;48.922;9.444;2023-10-08T12:36:22;20.90;99.90
7518;DHT22;3800;48.922;9.444;2023-10-08T12:38:52;21.00;99.90
7518;DHT22;3800;48.922;9.444;2023-10-08T12:41:27;21.00;99.90
7518;DHT22;3800;48.922;9.444;2023-10-08T12:43:55;21.00;99.90
7518;DHT22;3800;48.922;9.444;2023-10-08T12:46:23;21.10;99.90
7518;DHT22;3800;48.922;9.444;2023-10-08T12:48:52;21.10;99.90
7518;DHT22;3800;48.922;9.444;2023-10-08T12:51:21;21.10;99.90
7518;DHT22;3800;48.922;9.444;2023-10-08T12:53:52;21.20;99.90
7518;DHT22;3800;48.922;9.444;2023-10-08T12:56:26;21.10;99.90
7518;DHT22;3800;48.922;9.444;2023-10-08T12:59:00;21.10;99.90
7518;DHT22;3800;48.922;9.444;2023-10-08T13:01:28;21.10;99.90
7518;DHT22;3800;48.922;9.444;2023-10-08T13:03:56;21.20;99.90
7518;DHT22;3800;48.922;9.444;2023-10-08T13:06:28;21.20;99.90
7518;DHT22;3800;48.922;9.444;2023-10-08T13:08:57;21.40;99.90
7518;DHT22;3800;48.922;9.444;2023-10-08T13:11:26;21.50;99.90
7518;DHT22;3800;48.922;9.444;2023-10-08T13:13:54;21.50;99.90
7518;DHT22;3800;48.922;9.444;2023-10-08T13:16:23;21.60;99.90
7518;DHT22;3800;48.922;9.444;2023-10-08T13:18:52;21.70;99.90
7518;DHT22;3800;48.922;9.444;2023-10-08T13:21:20;21.90;99.90
7518;DHT22;3800;48.922;9.444;2023-10-08T13:23:49;22.00;99.90
7518;DHT22;3800;48.922;9.444;2023-10-08T13:26:17;22.00;99.90
7518;DHT22;3800;48.922;9.444;2023-10-08T13:28:46;22.10;99.90
7518;DHT22;3800;48.922;9.444;2023-10-08T13:31:15;22.10;99.90
7518;DHT22;3800;48.922;9.444;2023-10-08T13:33:43;22.10;99.90
7518;DHT22;3800;48.922;9.444;2023-10-08T13:36:11;22.10;99.90
7518;DHT22;3800;48.922;9.444;2023-10-08T13:38:40;22.00;99.90
7518;DHT22;3800;48.922;9.444;2023-10-08T13:41:09;22.00;99.90
7518;DHT22;3800;48.922;9.444;2023-10-08T13:43:43;22.10;99.90
7518;DHT22;3800;48.922;9.444;2023-10-08T13:46:14;22.10;99.90
7518;DHT22;3800;48.922;9.444;2023-10-08T13:48:42;22.10;99.90
7518;DHT22;3800;48.922;9.444;2023-10-08T13:51:10;22.10;99.90
7518;DHT22;3800;48.922;9.444;2023-10-08T13:53:41;22.00;99.90
7518;DHT22;3800;48.922;9.444;2023-10-08T13:56:12;22.10;99.90
7518;DHT22;3800;48.922;9.444;2023-10-08T13:58:40;22.10;99.90
7518;DHT22;3800;48.922;9.444;2023-10-08T14:01:09;22.10;99.90
7518;DHT22;3800;48.922;9.444;2023-10-08T14:03:38;22.10;99.90
7518;DHT22;3800;48.922;9.444;2023-10-08T14:06:07;22.10;99.90
7518;DHT22;3800;48.922;9.444;2023-10-08T14:08:36;22.10;99.90
7518;DHT22;3800;48.922;9.444;2023-10-08T14:11:04;22.10;99.90
7518;DHT22;3800;48.922;9.444;2023-10-08T14:13:32;22.10;99.90
7518;DHT22;3800;48.922;9.444;2023-10-08T14:16:02;22.10;99.90
7518;DHT22;3800;48.922;9.444;2023-10-08T14:18:30;22.10;99.90
7518;DHT22;3800;48.922;9.444;2023-10-08T14:20:58;22.00;99.90
7518;DHT22;3800;48.922;9.444;2023-10-08T14:23:26;22.00;99.90
7518;DHT22;3800;48.922;9.444;2023-10-08T14:25:55;22.00;99.90
7518;DHT22;3800;48.922;9.444;2023-10-08T14:28:24;22.00;99.90
7518;DHT22;3800;48.922;9.444;2023-10-08T14:30:53;22.00;99.90
7518;DHT22;3800;48.922;9.444;2023-10-08T14:33:22;22.00;99.90
7518;DHT22;3800;48.922;9.444;2023-10-08T14:35:52;22.00;99.90
7518;DHT22;3800;48.922;9.444;2023-10-08T14:38:25;22.00;99.90
7518;DHT22;3800;48.922;9.444;2023-10-08T14:40:59;22.00;99.90
7518;DHT22;3800;48.922;9.444;2023-10-08T14:43:32;21.80;99.90
7518;DHT22;3800;48.922;9.444;2023-10-08T14:46:01;21.80;99.90
7518;DHT22;3800;48.922;9.444;2023-10-08T14:48:29;21.70;99.90
7518;DHT22;3800;48.922;9.444;2023-10-08T14:50:57;21.70;99.90
7518;DHT22;3800;48.922;9.444;2023-10-08T14:53:26;21.70;99.90
7518;DHT22;3800;48.922;9.444;2023-10-08T14:55:55;21.60;99.90
7518;DHT22;3800;48.922;9.444;2023-10-08T14:58:23;21.60;99.90
7518;DHT22;3800;48.922;9.444;2023-10-08T15:00:51;21.60;99.90
7518;DHT22;3800;48.922;9.444;2023-10-08T15:03:19;21.70;99.90
7518;DHT22;3800;48.922;9.444;2023-10-08T15:05:48;21.60;99.90
7518;DHT22;3800;48.922;9.444;2023-10-08T15:08:17;21.60;99.90
7518;DHT22;3800;48.922;9.444;2023-10-08T15:10:45;21.70;99.90
7518;DHT22;3800;48.922;9.444;2023-10-08T15:13:13;21.70;99.90
7518;DHT22;3800;48.922;9.444;2023-10-08T15:15:42;21.60;99.90
7518;DHT22;3800;48.922;9.444;2023-10-08T15:18:10;21.60;99.90
7518;DHT22;3800;48.922;9.444;2023-10-08T15:20:39;21.60;99.90
7518;DHT22;3800;48.922;9.444;2023-10-08T15:23:08;21.50;99.90
7518;DHT22;3800;48.922;9.444;2023-10-08T15:25:36;21.50;99.90
7518;DHT22;3800;48.922;9.444;2023-10-08T15:28:04;21.50;99.90
7518;DHT22;3800;48.922;9.444;2023-10-08T15:30:32;21.40;99.90
7518;DHT22;3800;48.922;9.444;2023-10-08T15:33:01;21.30;99.90
7518;DHT22;3800;48.922;9.444;2023-10-08T15:35:30;21.30;99.90
7518;DHT22;3800;48.922;9.444;2023-10-08T15:37:58;21.30;99.90
7518;DHT22;3800;48.922;9.444;2023-10-08T15:40:27;21.10;99.90
7518;DHT22;3800;48.922;9.444;2023-10-08T15:42:55;21.10;99.90
7518;DHT22;3800;48.922;9.444;2023-10-08T15:45:24;21.10;99.90
7518;DHT22;3800;48.922;9.444;2023-10-08T15:47:52;21.00;99.90
7518;DHT22;3800;48.922;9.444;2023-10-08T15:50:21;20.90;99.90
7518;DHT22;3800;48.922;9.444;2023-10-08T15:52:49;20.90;99.90
7518;DHT22;3800;48.922;9.444;2023-10-08T15:55:18;20.90;99.90
7518;DHT22;3800;48.922;9.444;2023-10-08T15:57:47;20.80;99.90
7518;DHT22;3800;48.922;9.444;2023-10-08T16:00:15;20.70;99.90
7518;DHT22;3800;48.922;9.444;2023-10-08T16:02:44;20.70;99.90
7518;DHT22;3800;48.922;9.444;2023-10-08T16:05:12;20.70;99.90
7518;DHT22;3800;48.922;9.444;2023-10-08T16:07:40;20.60;99.90
7518;DHT22;3800;48.922;9.444;2023-10-08T16:10:09;20.60;99.90
7518;DHT22;3800;48.922;9.444;2023-10-08T16:12:37;20.50;99.90
7518;DHT22;3800;48.922;9.444;2023-10-08T16:15:06;20.50;99.90
7518;DHT22;3800;48.922;9.444;2023-10-08T16:17:35;20.50;99.90
7518;DHT22;3800;48.922;9.444;2023-10-08T16:20:04;20.40;99.90
7518;DHT22;3800;48.922;9.444;2023-10-08T16:22:34;20.40;99.90
7518;DHT22;3800;48.922;9.444;2023-10-08T16:25:02;20.40;99.90